createdAt,value
2019-03-23T00:00:43.396Z,54.85
2019-03-23T00:03:13.752Z,55.52
2019-03-23T00:05:42.040Z,55.57
2019-03-23T00:08:09.748Z,55.93
2019-03-23T00:10:37.463Z,55.93
2019-03-23T00:13:05.009Z,55.64
2019-03-23T00:15:33.926Z,55.64
2019-03-23T00:18:01.678Z,55.36
2019-03-23T00:20:29.318Z,55.59
2019-03-23T00:22:57.164Z,55.62
2019-03-23T00:25:24.770Z,55.62
2019-03-23T00:27:53.749Z,55.72
2019-03-23T00:30:21.320Z,55.72
2019-03-23T00:32:49.552Z,56.12
2019-03-23T00:35:17.191Z,56.56
2019-03-23T00:37:44.800Z,56.53
2019-03-23T00:40:12.787Z,56.66
2019-03-23T00:42:40.742Z,56.12
2019-03-23T00:45:08.430Z,56.12
2019-03-23T00:47:35.991Z,56.41
2019-03-23T00:50:03.639Z,56.08
2019-03-23T00:52:31.580Z,56.36
2019-03-23T00:54:59.180Z,56.36
2019-03-23T00:57:26.769Z,56.82
2019-03-23T00:59:54.342Z,56.82
2019-03-23T01:02:22.329Z,56.86
2019-03-23T01:04:50.042Z,56.80
2019-03-23T01:07:17.693Z,57.16
2019-03-23T01:09:45.679Z,57.16
2019-03-23T01:12:13.516Z,56.88
2019-03-23T01:14:41.127Z,56.51
2019-03-23T01:17:08.709Z,56.51
2019-03-23T01:19:36.588Z,56.62
2019-03-23T01:22:04.252Z,55.73
2019-03-23T01:24:31.899Z,55.73
2019-03-23T01:26:59.763Z,54.47
2019-03-23T01:29:27.316Z,54.47
2019-03-23T01:31:54.982Z,53.58
2019-03-23T01:34:22.853Z,53.58
2019-03-23T01:36:50.501Z,53.33
2019-03-23T01:39:18.071Z,52.78
2019-03-23T01:41:45.718Z,52.78
2019-03-23T01:44:13.545Z,52.97
2019-03-23T01:46:41.271Z,52.76
2019-03-23T01:49:08.865Z,52.76
2019-03-23T01:51:36.685Z,52.50
2019-03-23T01:54:04.318Z,52.50
2019-03-23T01:56:31.918Z,53.04
2019-03-23T01:58:59.528Z,53.04
2019-03-23T02:01:27.443Z,53.24
2019-03-23T02:03:55.499Z,53.24
2019-03-23T02:06:23.164Z,53.83
2019-03-23T02:08:50.692Z,54.16
2019-03-23T02:11:18.715Z,54.16
2019-03-23T02:13:46.302Z,54.07
2019-03-23T02:16:16.920Z,54.15
2019-03-23T02:18:44.822Z,54.15
2019-03-23T02:21:12.382Z,54.53
2019-03-23T02:23:40.334Z,54.53
2019-03-23T02:26:07.977Z,54.45
2019-03-23T02:28:35.848Z,54.60
2019-03-23T02:31:03.463Z,54.84
2019-03-23T02:33:31.123Z,55.16
2019-03-23T02:35:58.777Z,54.95
2019-03-23T02:38:28.928Z,55.01
2019-03-23T02:40:58.577Z,55.01
2019-03-23T02:43:26.250Z,55.85
2019-03-23T02:45:55.986Z,55.79
2019-03-23T02:48:23.610Z,55.25
2019-03-23T02:50:51.199Z,55.25
2019-03-23T02:53:18.885Z,55.81
2019-03-23T02:55:46.828Z,55.81
2019-03-23T02:58:14.469Z,55.99
2019-03-23T03:00:42.031Z,55.99
2019-03-23T03:03:09.667Z,56.46
2019-03-23T03:05:37.540Z,56.46
2019-03-23T03:08:05.231Z,56.00
2019-03-23T03:10:32.784Z,56.00
2019-03-23T03:13:00.452Z,56.18
2019-03-23T03:15:28.689Z,56.46
2019-03-23T03:17:56.658Z,56.60
2019-03-23T03:20:24.219Z,57.29
2019-03-23T03:22:51.944Z,57.15
2019-03-23T03:25:19.831Z,57.00
2019-03-23T03:27:47.431Z,57.00
2019-03-23T03:30:15.065Z,57.43
2019-03-23T03:32:42.677Z,57.43
2019-03-23T03:35:10.608Z,57.87
2019-03-23T03:37:38.176Z,57.83
2019-03-23T03:40:10.198Z,58.00
2019-03-23T03:42:37.787Z,58.00
2019-03-23T03:45:05.610Z,58.04
2019-03-23T03:47:33.291Z,58.55
2019-03-23T03:50:00.858Z,58.55
2019-03-23T03:52:28.392Z,59.07
2019-03-23T03:54:56.355Z,59.15
2019-03-23T03:57:23.907Z,58.67
2019-03-23T03:59:51.480Z,59.24
2019-03-23T04:02:19.070Z,59.24
2019-03-23T04:04:46.884Z,59.66
2019-03-23T04:07:14.341Z,59.66
2019-03-23T04:09:41.871Z,59.37
2019-03-23T04:12:09.427Z,59.90
2019-03-23T04:14:37.282Z,59.90
2019-03-23T04:17:04.937Z,59.71
2019-03-23T04:19:32.478Z,60.24
2019-03-23T04:22:00.019Z,59.87
2019-03-23T04:24:27.913Z,59.97
2019-03-23T04:26:55.478Z,59.97
2019-03-23T04:29:23.049Z,59.38
2019-03-23T04:31:50.658Z,59.38
2019-03-23T04:34:18.435Z,59.93
2019-03-23T04:36:45.930Z,60.02
2019-03-23T04:39:13.843Z,59.27
2019-03-23T04:41:41.293Z,59.53
2019-03-23T04:44:09.144Z,60.00
2019-03-23T04:46:36.612Z,59.67
2019-03-23T04:49:04.130Z,59.67
2019-03-23T04:51:31.920Z,59.76
2019-03-23T04:53:59.421Z,58.99
2019-03-23T04:56:27.049Z,59.66
2019-03-23T04:58:54.671Z,59.18
2019-03-23T05:01:22.471Z,59.78
2019-03-23T05:03:50.038Z,59.85
2019-03-23T05:06:17.647Z,59.85
2019-03-23T05:08:45.211Z,59.17
2019-03-23T05:11:13.074Z,59.80
2019-03-23T05:13:40.523Z,59.49
2019-03-23T05:16:07.991Z,59.48
2019-03-23T05:18:35.578Z,59.48
2019-03-23T05:21:03.053Z,59.99
2019-03-23T05:23:30.599Z,60.45
2019-03-23T05:25:58.541Z,60.59
2019-03-23T05:28:26.490Z,60.91
2019-03-23T05:30:54.082Z,60.91
2019-03-23T05:33:21.538Z,61.20
2019-03-23T05:35:48.985Z,61.20
2019-03-23T05:38:16.796Z,61.65
2019-03-23T05:40:44.344Z,61.36
2019-03-23T05:43:12.188Z,61.64
2019-03-23T05:45:39.668Z,61.20
2019-03-23T05:48:07.466Z,61.43
2019-03-23T05:50:34.964Z,61.43
2019-03-23T05:53:02.503Z,61.65
2019-03-23T05:55:33.067Z,62.00
2019-03-23T05:58:02.818Z,61.92
2019-03-23T06:00:30.372Z,61.81
2019-03-23T06:02:57.927Z,61.23
2019-03-23T06:05:25.769Z,61.94
2019-03-23T06:07:53.613Z,61.94
2019-03-23T06:10:22.990Z,61.62
2019-03-23T06:12:50.777Z,61.77
2019-03-23T06:15:18.323Z,61.77
2019-03-23T06:17:46.300Z,61.44
2019-03-23T06:20:14.122Z,61.92
2019-03-23T06:22:41.648Z,61.58
2019-03-23T06:25:09.201Z,61.58
2019-03-23T06:27:36.760Z,61.63
2019-03-23T06:30:04.614Z,62.07
2019-03-23T06:32:32.084Z,62.07
2019-03-23T06:34:59.633Z,62.12
2019-03-23T06:37:27.226Z,62.49
2019-03-23T06:39:55.031Z,62.49
2019-03-23T06:42:22.567Z,62.35
2019-03-23T06:44:50.132Z,62.22
2019-03-23T06:47:22.465Z,62.22
2019-03-23T06:49:50.303Z,62.70
2019-03-23T06:52:17.832Z,62.70
2019-03-23T06:54:45.418Z,62.71
2019-03-23T06:57:15.632Z,62.79
2019-03-23T06:59:43.467Z,62.84
2019-03-23T07:02:12.820Z,62.55
2019-03-23T07:04:40.416Z,62.55
2019-03-23T07:07:08.299Z,62.46
2019-03-23T07:09:38.297Z,62.27
2019-03-23T07:12:06.137Z,62.27
2019-03-23T07:14:34.004Z,62.55
2019-03-23T07:17:01.545Z,62.69
2019-03-23T07:19:31.951Z,62.41
2019-03-23T07:22:02.101Z,62.41
2019-03-23T07:24:29.727Z,61.97
2019-03-23T07:26:57.554Z,61.97
2019-03-23T07:29:25.167Z,62.18
2019-03-23T07:31:52.789Z,62.07
2019-03-23T07:34:23.032Z,62.03
2019-03-23T07:36:50.647Z,61.88
2019-03-23T07:39:27.337Z,61.89
2019-03-23T07:41:49.345Z,61.81
2019-03-23T07:44:16.873Z,61.63
2019-03-23T07:46:44.358Z,61.79
2019-03-23T07:49:12.240Z,62.05
2019-03-23T07:51:39.827Z,62.00
2019-03-23T07:54:07.385Z,62.00
2019-03-23T07:56:35.261Z,61.80
2019-03-23T07:59:05.116Z,61.80
2019-03-23T08:01:32.643Z,62.07
2019-03-23T08:04:00.479Z,61.79
2019-03-23T08:06:30.770Z,61.31
2019-03-23T08:08:58.250Z,61.31
2019-03-23T08:11:26.106Z,61.51
2019-03-23T08:13:53.690Z,61.51
2019-03-23T08:16:24.970Z,61.79
2019-03-23T08:19:11.638Z,61.75
2019-03-23T08:21:41.172Z,61.67
2019-03-23T08:24:08.651Z,61.31
2019-03-23T08:26:36.145Z,61.31
2019-03-23T08:29:03.771Z,61.30
2019-03-23T08:31:31.668Z,61.07
2019-03-23T08:34:01.158Z,61.44
2019-03-23T08:36:28.718Z,61.44
2019-03-23T08:38:59.647Z,61.01
2019-03-23T08:41:27.196Z,60.85
2019-03-23T08:43:54.816Z,61.09
2019-03-23T08:46:22.634Z,60.15
2019-03-23T08:48:50.236Z,60.15
2019-03-23T08:51:17.837Z,60.56
2019-03-23T08:53:45.677Z,60.86
2019-03-23T08:56:13.270Z,60.95
2019-03-23T08:58:42.809Z,60.95
2019-03-23T09:01:10.696Z,61.02
2019-03-23T09:03:38.270Z,61.25
2019-03-23T09:06:05.906Z,61.25
2019-03-23T09:08:33.763Z,61.11
2019-03-23T09:11:01.344Z,61.11
2019-03-23T09:13:28.852Z,60.80
2019-03-23T09:15:59.051Z,60.11
2019-03-23T09:18:26.568Z,60.38
2019-03-23T09:20:55.776Z,60.38
2019-03-23T09:23:23.346Z,60.43
2019-03-23T09:25:50.896Z,60.17
2019-03-23T09:28:18.813Z,60.53
2019-03-23T09:30:47.462Z,60.26
2019-03-23T09:33:15.014Z,59.87
2019-03-23T09:35:42.973Z,59.83
2019-03-23T09:38:12.251Z,59.83
2019-03-23T09:40:40.981Z,59.48
2019-03-23T09:43:11.538Z,59.98
2019-03-23T09:45:40.321Z,59.98
2019-03-23T09:48:07.807Z,59.82
2019-03-23T09:50:37.233Z,59.64
2019-03-23T09:53:04.797Z,59.64
2019-03-23T09:55:32.382Z,59.81
2019-03-23T09:58:00.541Z,60.04
2019-03-23T10:00:28.443Z,59.53
2019-03-23T10:02:55.946Z,59.53
2019-03-23T10:05:23.741Z,59.48
2019-03-23T10:07:51.188Z,59.33
2019-03-23T10:10:22.131Z,59.33
2019-03-23T10:12:48.296Z,59.32
2019-03-23T10:15:15.880Z,58.81
2019-03-23T10:17:43.712Z,58.81
2019-03-23T10:20:13.976Z,59.01
2019-03-23T10:22:41.515Z,59.10
2019-03-23T10:25:09.052Z,59.35
2019-03-23T10:27:37.014Z,59.26
2019-03-23T10:30:04.621Z,59.26
2019-03-23T10:32:32.230Z,59.63
2019-03-23T10:35:02.845Z,59.63
2019-03-23T10:37:30.450Z,58.85
2019-03-23T10:39:58.037Z,59.32
2019-03-23T10:42:25.824Z,58.77
2019-03-23T10:44:53.446Z,58.60
2019-03-23T10:47:21.022Z,58.60
2019-03-23T10:49:48.834Z,58.42
2019-03-23T10:52:16.451Z,58.42
2019-03-23T10:54:43.975Z,58.96
2019-03-23T10:57:11.727Z,58.96
2019-03-23T10:59:39.303Z,58.72
2019-03-23T11:02:06.940Z,58.72
2019-03-23T11:04:34.770Z,58.59
2019-03-23T11:07:04.187Z,58.45
2019-03-23T11:09:34.013Z,58.41
2019-03-23T11:12:01.813Z,58.17
2019-03-23T11:14:30.557Z,58.26
2019-03-23T11:16:59.726Z,58.26
2019-03-23T11:19:27.537Z,58.45
2019-03-23T11:21:55.115Z,58.45
2019-03-23T11:24:29.912Z,58.45
2019-03-23T11:26:57.710Z,58.45
2019-03-23T11:29:26.362Z,58.39
2019-03-23T11:31:54.337Z,58.39
2019-03-23T11:34:23.778Z,57.92
2019-03-23T11:36:51.382Z,56.22
2019-03-23T11:39:19.267Z,56.22
2019-03-23T11:41:47.094Z,55.69
2019-03-23T11:44:14.634Z,54.50
2019-03-23T11:46:42.179Z,54.44
2019-03-23T11:49:12.012Z,54.16
2019-03-23T11:51:41.892Z,54.16
2019-03-23T11:54:09.499Z,53.56
2019-03-23T11:56:37.261Z,53.37
2019-03-23T11:59:04.882Z,53.37
2019-03-23T12:01:32.410Z,52.61
2019-03-23T12:04:00.230Z,52.20
2019-03-23T12:06:30.752Z,51.29
2019-03-23T12:09:00.368Z,50.83
2019-03-23T12:11:28.278Z,50.39
2019-03-23T12:13:58.027Z,49.77
2019-03-23T12:16:25.618Z,49.77
2019-03-23T12:18:53.462Z,49.67
2019-03-23T12:21:21.114Z,49.95
2019-03-23T12:23:50.470Z,49.95
2019-03-23T12:26:20.173Z,50.40
2019-03-23T12:28:49.977Z,49.33
2019-03-23T12:31:17.752Z,49.33
2019-03-23T12:33:47.548Z,49.28
2019-03-23T12:36:15.161Z,48.99
2019-03-23T12:38:42.792Z,47.35
2019-03-23T12:41:22.768Z,45.64
2019-03-23T12:43:42.826Z,42.98
2019-03-23T12:46:10.391Z,42.98
2019-03-23T12:48:48.845Z,40.93
2019-03-23T12:51:16.402Z,41.07
2019-03-23T12:53:44.699Z,41.07
2019-03-23T12:56:12.533Z,41.11
2019-03-23T12:58:40.130Z,41.57
2019-03-23T13:01:10.932Z,42.21
2019-03-23T13:03:38.839Z,42.68
2019-03-23T13:06:11.651Z,44.49
2019-03-23T13:08:41.122Z,44.49
2019-03-23T13:11:12.178Z,45.15
2019-03-23T13:13:39.767Z,46.00
2019-03-23T13:16:07.260Z,46.64
2019-03-23T13:18:38.068Z,48.57
2019-03-23T13:21:05.587Z,48.57
2019-03-23T13:23:34.370Z,48.68
2019-03-23T13:26:03.806Z,49.13
2019-03-23T13:28:31.351Z,49.59
2019-03-23T13:30:59.174Z,49.59
2019-03-23T13:33:26.723Z,49.01
2019-03-23T13:35:56.162Z,48.90
2019-03-23T13:38:25.042Z,48.91
2019-03-23T13:40:52.505Z,49.05
2019-03-23T13:43:20.225Z,49.19
2019-03-23T13:45:51.091Z,49.19
2019-03-23T13:48:21.622Z,49.04
2019-03-23T13:50:49.168Z,49.04
2019-03-23T13:53:22.499Z,49.22
2019-03-23T13:55:51.504Z,49.22
2019-03-23T13:58:23.040Z,49.14
2019-03-23T14:00:48.512Z,49.42
2019-03-23T14:03:16.098Z,49.77
2019-03-23T14:05:44.038Z,50.08
2019-03-23T14:08:11.935Z,50.32
2019-03-23T14:10:39.486Z,50.57
2019-03-23T14:13:08.984Z,50.84
2019-03-23T14:15:36.500Z,51.13
2019-03-23T14:18:05.246Z,51.45
2019-03-23T14:20:33.180Z,51.68
2019-03-23T14:23:02.946Z,52.28
2019-03-23T14:25:32.949Z,52.28
2019-03-23T14:28:00.964Z,53.06
2019-03-23T14:30:28.813Z,53.06
2019-03-23T14:32:56.415Z,53.30
2019-03-23T14:35:24.147Z,53.63
2019-03-23T14:37:54.688Z,53.84
2019-03-23T14:40:23.400Z,54.60
2019-03-23T14:42:56.031Z,54.27
2019-03-23T14:45:29.781Z,54.27
2019-03-23T14:47:59.630Z,54.89
2019-03-23T14:50:28.353Z,54.89
2019-03-23T14:52:55.925Z,54.69
2019-03-23T14:55:23.528Z,54.69
2019-03-23T14:57:54.966Z,54.82
2019-03-23T15:00:22.165Z,54.79
2019-03-23T15:02:49.702Z,54.80
2019-03-23T15:05:21.364Z,54.95
2019-03-23T15:07:50.734Z,54.95
2019-03-23T15:10:21.307Z,54.73
2019-03-23T15:12:58.455Z,55.00
2019-03-23T15:15:28.020Z,55.00
2019-03-23T15:17:55.568Z,54.80
2019-03-23T15:20:23.129Z,54.79
2019-03-23T15:22:50.704Z,54.69
2019-03-23T15:25:18.504Z,54.96
2019-03-23T15:27:45.986Z,54.96
2019-03-23T15:30:13.541Z,54.94
2019-03-23T15:32:42.896Z,55.11
2019-03-23T15:35:10.481Z,55.68
2019-03-23T15:37:38.387Z,55.68
2019-03-23T15:40:10.090Z,55.75
2019-03-23T15:42:37.367Z,56.09
2019-03-23T15:45:07.724Z,56.09
2019-03-23T15:47:39.464Z,56.10
2019-03-23T15:50:12.840Z,56.10
2019-03-23T15:52:40.471Z,55.81
2019-03-23T15:55:12.861Z,55.85
2019-03-23T15:57:42.230Z,55.85
2019-03-23T16:00:09.795Z,55.92
2019-03-23T16:02:37.629Z,55.87
2019-03-23T16:05:13.435Z,55.99
2019-03-23T16:07:43.995Z,55.99
2019-03-23T16:10:14.599Z,56.10
2019-03-23T16:12:42.139Z,56.45
2019-03-23T16:15:09.614Z,56.45
2019-03-23T16:17:39.040Z,56.45
2019-03-23T16:20:09.096Z,56.57
2019-03-23T16:22:36.953Z,56.78
2019-03-23T16:25:04.708Z,57.01
2019-03-23T16:27:32.259Z,57.37
2019-03-23T16:30:02.313Z,57.37
2019-03-23T16:32:30.239Z,57.48
2019-03-23T16:35:00.835Z,57.57
2019-03-23T16:37:28.756Z,57.81
2019-03-23T16:39:56.956Z,57.81
2019-03-23T16:42:24.436Z,58.05
2019-03-23T16:44:52.008Z,58.20
2019-03-23T16:47:20.977Z,58.58
2019-03-23T16:49:48.516Z,58.58
2019-03-23T16:52:19.361Z,58.45
2019-03-23T16:54:45.603Z,58.46
2019-03-23T16:57:13.100Z,58.50
2019-03-23T16:59:40.682Z,58.56
2019-03-23T17:02:15.894Z,58.65
2019-03-23T17:04:44.615Z,58.75
2019-03-23T17:07:14.571Z,58.95
2019-03-23T17:09:42.162Z,58.95
2019-03-23T17:12:09.802Z,59.37
2019-03-23T17:14:37.555Z,59.37
2019-03-23T17:17:05.539Z,59.27
2019-03-23T17:19:33.264Z,59.27
2019-03-23T17:22:04.530Z,59.24
2019-03-23T17:24:30.616Z,59.45
2019-03-23T17:26:58.252Z,59.45
2019-03-23T17:29:28.525Z,59.67
2019-03-23T17:31:56.091Z,59.71
2019-03-23T17:34:23.981Z,59.72
2019-03-23T17:36:58.667Z,59.77
2019-03-23T17:39:28.128Z,59.77
2019-03-23T17:41:58.900Z,59.86
2019-03-23T17:44:26.567Z,59.94
2019-03-23T17:46:55.614Z,59.95
2019-03-23T17:49:23.414Z,59.95
2019-03-23T17:52:05.119Z,60.18
2019-03-23T17:54:23.114Z,60.21
2019-03-23T17:56:51.845Z,60.28
2019-03-23T17:59:21.285Z,60.21
2019-03-23T18:01:51.952Z,60.32
2019-03-23T18:04:22.630Z,60.41
2019-03-23T18:06:50.218Z,60.74
2019-03-23T18:09:17.714Z,60.74
2019-03-23T18:11:45.569Z,60.62
2019-03-23T18:14:13.042Z,60.63
2019-03-23T18:16:42.835Z,60.72
2019-03-23T18:19:10.639Z,60.54
2019-03-23T18:21:45.520Z,60.54
2019-03-23T18:24:13.077Z,60.45
2019-03-23T18:26:51.132Z,60.90
2019-03-23T18:29:11.787Z,60.90
2019-03-23T18:31:42.262Z,61.09
2019-03-23T18:34:11.628Z,61.29
2019-03-23T18:36:40.379Z,61.33
2019-03-23T18:39:10.592Z,61.33
2019-03-23T18:41:38.373Z,61.49
2019-03-23T18:44:15.809Z,61.37
2019-03-23T18:46:37.651Z,61.37
2019-03-23T18:49:05.432Z,61.69
2019-03-23T18:51:33.817Z,61.80
2019-03-23T18:54:01.395Z,62.32
2019-03-23T18:56:33.763Z,62.32
2019-03-23T18:59:05.659Z,61.97
2019-03-23T19:01:33.481Z,62.46
2019-03-23T19:04:01.017Z,62.53
2019-03-23T19:06:28.576Z,62.89
2019-03-23T19:08:56.799Z,62.37
2019-03-23T19:11:24.365Z,62.37
2019-03-23T19:13:54.311Z,62.90
2019-03-23T19:16:29.090Z,62.76
2019-03-23T19:18:57.585Z,62.85
2019-03-23T19:21:25.417Z,62.85
2019-03-23T19:23:56.031Z,63.23
2019-03-23T19:26:23.484Z,63.23
2019-03-23T19:28:51.380Z,62.94
2019-03-23T19:31:21.777Z,63.02
2019-03-23T19:33:49.365Z,63.02
2019-03-23T19:36:21.222Z,62.81
2019-03-23T19:38:56.994Z,62.84
2019-03-23T19:41:20.275Z,62.84
2019-03-23T19:43:50.754Z,63.00
2019-03-23T19:46:17.403Z,63.21
2019-03-23T19:48:47.715Z,62.99
2019-03-23T19:51:15.597Z,62.99
2019-03-23T19:53:46.159Z,63.07
2019-03-23T19:56:16.843Z,63.06
2019-03-23T19:58:44.639Z,63.09
2019-03-23T20:01:12.243Z,63.07
2019-03-23T20:03:39.789Z,62.87
2019-03-23T20:06:09.278Z,63.05
2019-03-23T20:08:36.980Z,63.05
2019-03-23T20:11:04.495Z,63.18
2019-03-23T20:13:32.767Z,63.27
2019-03-23T20:16:07.730Z,63.33
2019-03-23T20:18:37.139Z,63.40
2019-03-23T20:21:05.898Z,63.54
2019-03-23T20:23:33.530Z,63.58
2019-03-23T20:26:06.315Z,63.65
2019-03-23T20:28:35.158Z,63.39
2019-03-23T20:31:03.029Z,63.39
2019-03-23T20:33:30.613Z,64.21
2019-03-23T20:36:00.432Z,64.21
2019-03-23T20:38:28.083Z,64.11
2019-03-23T20:40:55.722Z,64.43
2019-03-23T20:43:23.593Z,64.43
2019-03-23T20:45:52.850Z,64.38
2019-03-23T20:48:20.509Z,64.38
2019-03-23T20:50:48.329Z,64.53
2019-03-23T20:53:17.855Z,64.44
2019-03-23T20:55:47.075Z,64.44
2019-03-23T20:58:17.077Z,64.62
2019-03-23T21:00:44.599Z,64.66
2019-03-23T21:03:18.226Z,64.66
2019-03-23T21:05:49.125Z,64.55
2019-03-23T21:08:16.329Z,64.55
2019-03-23T21:10:44.237Z,64.66
2019-03-23T21:13:12.047Z,64.66
2019-03-23T21:15:39.676Z,64.84
2019-03-23T21:18:10.021Z,64.99
2019-03-23T21:20:40.616Z,65.29
2019-03-23T21:23:08.126Z,65.29
2019-03-23T21:25:35.676Z,65.21
2019-03-23T21:28:05.593Z,65.21
2019-03-23T21:30:36.171Z,65.20
2019-03-23T21:33:06.286Z,65.21
2019-03-23T21:35:38.160Z,65.21
2019-03-23T21:38:05.740Z,65.21
2019-03-23T21:40:35.095Z,65.31
2019-03-23T21:43:08.665Z,65.45
2019-03-23T21:45:43.614Z,65.66
2019-03-23T21:48:11.504Z,65.54
2019-03-23T21:50:47.501Z,65.54
2019-03-23T21:53:11.114Z,66.11
2019-03-23T21:55:50.740Z,66.11
2019-03-23T21:58:21.296Z,65.99
2019-03-23T22:00:48.935Z,66.03
2019-03-23T22:03:16.738Z,65.96
2019-03-23T22:05:46.194Z,65.96
2019-03-23T22:08:13.763Z,66.14
2019-03-23T22:10:42.635Z,66.23
2019-03-23T22:13:13.280Z,66.29
2019-03-23T22:15:41.579Z,66.29
2019-03-23T22:18:09.395Z,66.34
2019-03-23T22:20:39.623Z,66.12
2019-03-23T22:23:10.932Z,66.71
2019-03-23T22:25:38.461Z,66.71
2019-03-23T22:28:05.964Z,66.40
2019-03-23T22:30:34.111Z,66.31
2019-03-23T22:33:01.619Z,66.31
2019-03-23T22:35:30.348Z,66.06
2019-03-23T22:37:58.172Z,66.06
2019-03-23T22:40:28.119Z,66.44
2019-03-23T22:42:55.026Z,66.42
2019-03-23T22:45:22.840Z,66.29
2019-03-23T22:47:50.364Z,66.47
2019-03-23T22:50:17.847Z,66.47
2019-03-23T22:52:48.003Z,66.50
2019-03-23T22:55:22.891Z,66.17
2019-03-23T22:57:54.864Z,66.17
2019-03-23T23:00:33.932Z,66.56
2019-03-23T23:03:01.529Z,66.54
2019-03-23T23:05:29.358Z,66.52
2019-03-23T23:07:57.174Z,66.54
2019-03-23T23:10:24.688Z,66.74
2019-03-23T23:12:52.491Z,66.74
2019-03-23T23:15:20.040Z,66.52
2019-03-23T23:17:47.620Z,66.52
2019-03-23T23:20:15.422Z,66.95
2019-03-23T23:22:42.908Z,66.47
2019-03-23T23:25:10.502Z,66.47
2019-03-23T23:27:38.357Z,66.51
2019-03-23T23:30:06.150Z,66.51
2019-03-23T23:32:35.980Z,66.67
2019-03-23T23:35:03.853Z,67.17
2019-03-23T23:37:31.306Z,67.17
2019-03-23T23:40:00.325Z,66.74
2019-03-23T23:42:28.408Z,66.76
2019-03-23T23:44:55.970Z,66.82
2019-03-23T23:47:23.544Z,66.79
2019-03-23T23:49:54.372Z,67.18
2019-03-23T23:52:22.484Z,67.18
2019-03-23T23:54:50.103Z,66.79
2019-03-23T23:57:18.307Z,66.80
2019-03-23T23:59:45.895Z,67.01
